createdAt,value
2018-06-09T00:00:14.147Z,27.10
2018-06-09T00:02:42.525Z,27.00
2018-06-09T00:05:10.908Z,27.00
2018-06-09T00:07:39.349Z,26.90
2018-06-09T00:10:07.757Z,26.90
2018-06-09T00:12:36.383Z,26.90
2018-06-09T00:15:04.693Z,26.90
2018-06-09T00:17:33.057Z,26.80
2018-06-09T00:20:01.578Z,26.80
2018-06-09T00:22:29.928Z,26.70
2018-06-09T00:24:58.341Z,26.80
2018-06-09T00:27:26.756Z,26.70
2018-06-09T00:29:55.094Z,26.70
2018-06-09T00:32:23.621Z,26.70
2018-06-09T00:34:52.048Z,26.60
2018-06-09T00:37:20.449Z,26.60
2018-06-09T00:39:48.860Z,26.60
2018-06-09T00:42:17.363Z,26.60
2018-06-09T00:44:45.748Z,26.60
2018-06-09T00:47:14.149Z,26.50
2018-06-09T00:49:42.583Z,26.50
2018-06-09T00:52:11.043Z,26.50
2018-06-09T00:54:39.343Z,26.50
2018-06-09T00:57:07.665Z,26.40
2018-06-09T00:59:36.114Z,26.40
2018-06-09T01:02:04.480Z,26.40
2018-06-09T01:04:33.234Z,26.40
2018-06-09T01:07:01.776Z,26.40
2018-06-09T01:09:30.160Z,26.40
2018-06-09T01:11:58.558Z,26.30
2018-06-09T01:14:26.845Z,26.40
2018-06-09T01:16:55.390Z,26.30
2018-06-09T01:19:23.816Z,26.30
2018-06-09T01:21:52.172Z,26.30
2018-06-09T01:24:20.666Z,26.30
2018-06-09T01:26:49.078Z,26.30
2018-06-09T01:29:17.903Z,26.20
2018-06-09T01:31:46.299Z,26.20
2018-06-09T01:34:14.713Z,26.20
2018-06-09T01:36:43.196Z,26.20
2018-06-09T01:39:11.615Z,26.10
2018-06-09T01:41:40.099Z,26.10
2018-06-09T01:44:08.491Z,26.10
2018-06-09T01:46:36.840Z,26.10
2018-06-09T01:49:05.198Z,26.10
2018-06-09T01:51:33.577Z,26.10
2018-06-09T01:54:01.869Z,26.10
2018-06-09T01:56:30.267Z,26.00
2018-06-09T01:58:58.620Z,26.00
2018-06-09T02:01:27.230Z,26.00
2018-06-09T02:03:55.893Z,25.90
2018-06-09T02:06:24.439Z,25.90
2018-06-09T02:08:52.912Z,25.90
2018-06-09T02:11:21.305Z,25.90
2018-06-09T02:13:49.687Z,25.90
2018-06-09T02:16:18.207Z,25.90
2018-06-09T02:18:46.651Z,25.80
2018-06-09T02:21:14.974Z,25.80
2018-06-09T02:23:43.258Z,25.80
2018-06-09T02:26:11.615Z,25.80
2018-06-09T02:28:39.956Z,25.70
2018-06-09T02:31:08.736Z,25.70
2018-06-09T02:33:37.175Z,25.70
2018-06-09T02:36:05.765Z,25.60
2018-06-09T02:38:34.066Z,25.60
2018-06-09T02:41:02.502Z,25.60
2018-06-09T02:43:30.836Z,25.50
2018-06-09T02:45:59.275Z,25.50
2018-06-09T02:48:27.600Z,25.50
2018-06-09T02:50:56.035Z,25.50
2018-06-09T02:53:24.474Z,25.40
2018-06-09T02:55:52.871Z,25.40
2018-06-09T02:58:21.600Z,25.40
2018-06-09T03:00:49.991Z,25.30
2018-06-09T03:03:18.319Z,25.30
2018-06-09T03:05:46.747Z,25.30
2018-06-09T03:08:16.103Z,25.20
2018-06-09T03:10:44.467Z,25.20
2018-06-09T03:13:12.884Z,25.20
2018-06-09T03:15:41.199Z,25.20
2018-06-09T03:18:09.678Z,25.10
2018-06-09T03:20:38.032Z,25.10
2018-06-09T03:23:06.523Z,25.10
2018-06-09T03:25:34.805Z,25.10
2018-06-09T03:28:03.133Z,25.00
2018-06-09T03:30:32.028Z,25.00
2018-06-09T03:33:00.341Z,25.00
2018-06-09T03:35:28.703Z,25.00
2018-06-09T03:37:57.083Z,25.00
2018-06-09T03:40:25.584Z,25.00
2018-06-09T03:42:54.008Z,24.90
2018-06-09T03:45:22.768Z,24.90
2018-06-09T03:47:51.213Z,24.90
2018-06-09T03:50:19.574Z,24.90
2018-06-09T03:52:48.050Z,24.90
2018-06-09T03:55:16.519Z,24.90
2018-06-09T03:57:44.938Z,24.90
2018-06-09T04:00:13.260Z,24.90
2018-06-09T04:02:41.555Z,24.90
2018-06-09T04:05:09.944Z,24.90
2018-06-09T04:07:38.282Z,25.40
2018-06-09T04:10:06.665Z,24.90
2018-06-09T04:12:35.028Z,24.90
2018-06-09T04:15:03.407Z,24.90
2018-06-09T04:17:31.766Z,24.90
2018-06-09T04:20:00.126Z,24.90
2018-06-09T04:22:28.487Z,24.90
2018-06-09T04:24:56.811Z,24.90
2018-06-09T04:27:25.138Z,25.00
2018-06-09T04:29:53.554Z,25.00
2018-06-09T04:32:22.365Z,25.00
2018-06-09T04:34:50.725Z,25.00
2018-06-09T04:37:19.291Z,25.10
2018-06-09T04:39:47.679Z,25.10
2018-06-09T04:42:16.650Z,25.10
2018-06-09T04:44:45.164Z,25.20
2018-06-09T04:47:14.465Z,25.30
2018-06-09T04:49:42.792Z,25.30
2018-06-09T04:52:11.248Z,25.30
2018-06-09T04:54:39.568Z,25.40
2018-06-09T04:57:07.924Z,25.40
2018-06-09T04:59:36.331Z,25.50
2018-06-09T05:02:04.703Z,25.50
2018-06-09T05:04:33.050Z,25.60
2018-06-09T05:07:01.380Z,25.60
2018-06-09T05:09:29.683Z,25.70
2018-06-09T05:11:57.990Z,25.70
2018-06-09T05:14:26.312Z,25.80
2018-06-09T05:16:54.601Z,25.90
2018-06-09T05:19:23.541Z,25.90
2018-06-09T05:21:52.056Z,25.90
2018-06-09T05:24:20.502Z,26.00
2018-06-09T05:26:48.928Z,26.00
2018-06-09T05:29:17.279Z,26.10
2018-06-09T05:31:45.622Z,26.10
2018-06-09T05:34:13.986Z,26.10
2018-06-09T05:36:42.340Z,26.10
2018-06-09T05:39:10.719Z,26.20
2018-06-09T05:41:39.136Z,26.20
2018-06-09T05:44:07.628Z,26.20
2018-06-09T05:46:35.997Z,26.20
2018-06-09T05:49:05.360Z,26.30
2018-06-09T05:51:33.717Z,26.30
2018-06-09T05:54:02.175Z,26.40
2018-06-09T05:56:30.505Z,26.40
2018-06-09T05:58:58.803Z,26.50
2018-06-09T06:01:27.133Z,26.50
2018-06-09T06:03:55.539Z,26.50
2018-06-09T06:06:24.087Z,26.60
2018-06-09T06:08:52.560Z,26.60
2018-06-09T06:11:21.115Z,26.60
2018-06-09T06:13:49.868Z,26.70
2018-06-09T06:16:18.504Z,26.70
2018-06-09T06:18:47.019Z,26.80
2018-06-09T06:21:15.343Z,26.80
2018-06-09T06:23:43.815Z,26.90
2018-06-09T06:26:12.412Z,26.90
2018-06-09T06:28:40.782Z,26.90
2018-06-09T06:31:10.256Z,27.00
2018-06-09T06:33:38.825Z,27.00
2018-06-09T06:36:07.332Z,27.10
2018-06-09T06:38:35.816Z,27.10
2018-06-09T06:41:04.263Z,27.20
2018-06-09T06:43:33.340Z,27.30
2018-06-09T06:46:02.972Z,27.40
2018-06-09T06:48:31.451Z,27.40
2018-06-09T06:51:00.765Z,27.50
2018-06-09T06:53:29.120Z,27.60
2018-06-09T06:55:57.548Z,27.70
2018-06-09T06:58:26.282Z,27.80
2018-06-09T07:00:55.366Z,27.90
2018-06-09T07:03:23.804Z,28.00
2018-06-09T07:05:52.271Z,28.10
2018-06-09T07:08:20.852Z,28.20
2018-06-09T07:10:49.319Z,28.40
2018-06-09T07:13:17.684Z,28.50
2018-06-09T07:15:46.028Z,28.70
2018-06-09T07:18:14.897Z,28.80
2018-06-09T07:20:43.394Z,28.90
2018-06-09T07:23:11.970Z,29.10
2018-06-09T07:25:40.771Z,29.20
2018-06-09T07:28:10.013Z,29.30
2018-06-09T07:30:38.923Z,29.40
2018-06-09T07:33:07.386Z,29.40
2018-06-09T07:35:36.127Z,29.50
2018-06-09T07:38:04.668Z,29.50
2018-06-09T07:40:33.151Z,29.60
2018-06-09T07:43:01.893Z,29.60
2018-06-09T07:45:30.787Z,29.60
2018-06-09T07:47:59.466Z,29.60
2018-06-09T07:50:28.464Z,29.70
2018-06-09T07:52:56.876Z,29.70
2018-06-09T07:55:25.240Z,29.80
2018-06-09T07:57:53.837Z,29.90
2018-06-09T08:00:22.112Z,30.10
2018-06-09T08:02:50.472Z,30.40
2018-06-09T08:05:18.760Z,30.70
2018-06-09T08:07:47.146Z,31.10
2018-06-09T08:10:15.515Z,31.50
2018-06-09T08:12:44.365Z,31.80
2018-06-09T08:15:12.862Z,32.20
2018-06-09T08:17:41.199Z,32.50
2018-06-09T08:20:09.751Z,32.80
2018-06-09T08:22:38.147Z,33.10
2018-06-09T08:25:06.735Z,33.40
2018-06-09T08:27:35.496Z,33.70
2018-06-09T08:30:04.067Z,34.00
2018-06-09T08:32:34.287Z,34.30
2018-06-09T08:35:02.967Z,34.60
2018-06-09T08:37:31.363Z,34.80
2018-06-09T08:39:59.844Z,35.10
2018-06-09T08:42:28.436Z,35.40
2018-06-09T08:44:57.026Z,35.70
2018-06-09T08:47:25.406Z,35.90
2018-06-09T08:49:53.753Z,36.20
2018-06-09T08:52:22.186Z,36.40
2018-06-09T08:54:50.528Z,36.70
2018-06-09T08:57:18.918Z,36.80
2018-06-09T08:59:47.564Z,36.90
2018-06-09T09:02:15.948Z,37.10
2018-06-09T09:04:44.378Z,37.20
2018-06-09T09:07:12.960Z,37.20
2018-06-09T09:09:41.460Z,37.10
2018-06-09T09:12:10.000Z,37.20
2018-06-09T09:14:38.469Z,37.20
2018-06-09T09:17:07.429Z,37.30
2018-06-09T09:19:36.146Z,37.50
2018-06-09T09:22:04.842Z,37.60
2018-06-09T09:24:33.212Z,37.70
2018-06-09T09:27:01.885Z,37.70
2018-06-09T09:29:31.579Z,37.80
2018-06-09T09:31:59.948Z,37.90
2018-06-09T09:34:28.452Z,38.00
2018-06-09T09:36:56.904Z,38.00
2018-06-09T09:39:25.378Z,38.00
2018-06-09T09:41:53.853Z,38.10
2018-06-09T09:44:22.321Z,38.10
2018-06-09T09:46:50.978Z,38.10
2018-06-09T09:49:20.176Z,38.10
2018-06-09T09:51:48.552Z,38.10
2018-06-09T09:54:17.610Z,38.10
2018-06-09T09:56:45.966Z,38.20
2018-06-09T09:59:14.316Z,38.30
2018-06-09T10:01:42.904Z,38.40
2018-06-09T10:04:11.502Z,38.50
2018-06-09T10:06:40.325Z,38.60
2018-06-09T10:09:09.663Z,38.70
2018-06-09T10:11:38.053Z,38.80
2018-06-09T10:14:06.528Z,39.00
2018-06-09T10:16:35.101Z,39.10
2018-06-09T10:19:03.607Z,39.20
2018-06-09T10:21:32.319Z,39.40
2018-06-09T10:24:00.712Z,39.60
2018-06-09T10:26:29.263Z,39.80
2018-06-09T10:28:57.735Z,40.00
2018-06-09T10:31:26.425Z,40.10
2018-06-09T10:33:55.336Z,40.30
2018-06-09T10:36:24.018Z,40.50
2018-06-09T10:38:52.659Z,40.80
2018-06-09T10:41:21.319Z,41.10
2018-06-09T10:43:50.500Z,41.50
2018-06-09T10:46:19.320Z,42.00
2018-06-09T10:48:47.741Z,42.40
2018-06-09T10:51:16.781Z,42.80
2018-06-09T10:53:45.309Z,43.30
2018-06-09T10:56:14.424Z,43.80
2018-06-09T10:58:43.240Z,44.20
2018-06-09T11:01:11.983Z,44.70
2018-06-09T11:03:40.700Z,45.10
2018-06-09T11:06:09.360Z,45.40
2018-06-09T11:08:37.932Z,45.70
2018-06-09T11:11:06.415Z,46.00
2018-06-09T11:13:35.634Z,46.30
2018-06-09T11:16:04.060Z,46.50
2018-06-09T11:18:33.090Z,46.70
2018-06-09T11:21:02.602Z,47.00
2018-06-09T11:23:31.056Z,47.20
2018-06-09T11:25:59.451Z,47.40
2018-06-09T11:28:27.815Z,47.60
2018-06-09T11:30:56.164Z,47.80
2018-06-09T11:33:25.151Z,47.90
2018-06-09T11:35:53.594Z,48.10
2018-06-09T11:38:22.407Z,48.30
2018-06-09T11:40:50.747Z,48.40
2018-06-09T11:43:19.842Z,48.60
2018-06-09T11:45:48.348Z,48.70
2018-06-09T11:48:17.520Z,48.90
2018-06-09T11:50:46.091Z,49.00
2018-06-09T11:53:14.424Z,49.20
2018-06-09T11:55:43.030Z,49.20
2018-06-09T11:58:12.044Z,49.20
2018-06-09T12:00:41.481Z,49.20
2018-06-09T12:03:11.034Z,49.20
2018-06-09T12:05:40.719Z,49.10
2018-06-09T12:08:09.374Z,49.10
2018-06-09T12:10:38.532Z,49.10
2018-06-09T12:13:07.110Z,49.20
2018-06-09T12:15:35.941Z,49.20
2018-06-09T12:18:04.932Z,49.40
2018-06-09T12:20:33.388Z,49.40
2018-06-09T12:23:01.940Z,49.40
2018-06-09T12:25:30.477Z,49.50
2018-06-09T12:27:58.868Z,49.50
2018-06-09T12:30:27.293Z,49.60
2018-06-09T12:32:55.671Z,49.70
2018-06-09T12:35:24.130Z,49.70
2018-06-09T12:37:53.407Z,49.90
2018-06-09T12:40:22.656Z,50.10
2018-06-09T12:42:51.111Z,50.20
2018-06-09T12:45:20.065Z,50.40
2018-06-09T12:47:49.068Z,50.50
2018-06-09T12:50:17.414Z,50.70
2018-06-09T12:52:46.202Z,50.80
2018-06-09T12:55:14.687Z,51.00
2018-06-09T12:57:43.294Z,51.20
2018-06-09T13:00:11.807Z,51.30
2018-06-09T13:02:40.159Z,51.40
2018-06-09T13:05:08.759Z,51.30
2018-06-09T13:07:38.217Z,51.20
2018-06-09T13:10:06.873Z,50.90
2018-06-09T13:12:36.514Z,50.50
2018-06-09T13:15:05.179Z,50.10
2018-06-09T13:17:33.828Z,49.60
2018-06-09T13:20:02.172Z,49.20
2018-06-09T13:22:30.705Z,48.70
2018-06-09T13:24:59.468Z,48.20
2018-06-09T13:27:28.048Z,47.70
2018-06-09T13:29:56.644Z,47.30
2018-06-09T13:32:25.101Z,46.70
2018-06-09T13:34:54.086Z,46.30
2018-06-09T13:37:23.172Z,45.90
2018-06-09T13:39:51.861Z,45.40
2018-06-09T13:42:21.014Z,45.10
2018-06-09T13:44:49.331Z,44.90
2018-06-09T13:47:17.693Z,44.70
2018-06-09T13:49:46.008Z,44.60
2018-06-09T13:52:14.382Z,44.40
2018-06-09T13:54:43.173Z,44.10
2018-06-09T13:57:11.613Z,43.80
2018-06-09T13:59:40.022Z,43.50
2018-06-09T14:02:08.653Z,43.00
2018-06-09T14:04:37.241Z,42.70
2018-06-09T14:07:06.397Z,42.30
2018-06-09T14:09:35.027Z,42.00
2018-06-09T14:12:03.484Z,41.70
2018-06-09T14:14:31.903Z,41.40
2018-06-09T14:17:00.950Z,41.20
2018-06-09T14:19:29.289Z,41.00
2018-06-09T14:21:57.619Z,40.90
2018-06-09T14:24:25.947Z,40.70
2018-06-09T14:26:54.427Z,40.50
2018-06-09T14:29:23.178Z,40.40
2018-06-09T14:31:51.655Z,40.20
2018-06-09T14:34:20.911Z,40.10
2018-06-09T14:36:49.420Z,39.90
2018-06-09T14:39:17.977Z,39.80
2018-06-09T14:41:46.309Z,39.70
2018-06-09T14:44:14.711Z,39.60
2018-06-09T14:46:43.599Z,39.40
2018-06-09T14:49:12.082Z,39.30
2018-06-09T14:51:40.769Z,39.20
2018-06-09T14:54:09.143Z,39.00
2018-06-09T14:56:37.625Z,38.80
2018-06-09T14:59:06.110Z,38.70
2018-06-09T15:01:34.485Z,38.60
2018-06-09T15:04:02.871Z,38.50
2018-06-09T15:06:31.359Z,38.30
2018-06-09T15:08:59.756Z,38.20
2018-06-09T15:11:28.277Z,38.00
2018-06-09T15:13:56.675Z,37.80
2018-06-09T15:16:25.696Z,37.70
2018-06-09T15:18:54.720Z,37.50
2018-06-09T15:21:23.271Z,37.40
2018-06-09T15:23:52.119Z,37.20
2018-06-09T15:26:20.586Z,37.10
2018-06-09T15:28:49.662Z,37.00
2018-06-09T15:31:18.602Z,36.90
2018-06-09T15:33:47.143Z,36.80
2018-06-09T15:36:16.134Z,36.80
2018-06-09T15:38:44.700Z,36.70
2018-06-09T15:41:13.300Z,36.70
2018-06-09T15:43:42.145Z,36.70
2018-06-09T15:46:10.722Z,36.60
2018-06-09T15:48:39.177Z,36.50
2018-06-09T15:51:07.687Z,36.50
2018-06-09T15:53:36.638Z,36.40
2018-06-09T15:56:05.141Z,36.30
2018-06-09T15:58:33.538Z,36.30
2018-06-09T16:01:02.400Z,36.20
2018-06-09T16:03:30.841Z,36.10
2018-06-09T16:05:59.970Z,36.00
2018-06-09T16:08:28.403Z,36.00
2018-06-09T16:10:56.721Z,35.90
2018-06-09T16:13:25.524Z,35.80
2018-06-09T16:15:53.962Z,35.70
2018-06-09T16:18:22.622Z,35.60
2018-06-09T16:20:51.056Z,35.40
2018-06-09T16:23:20.804Z,35.30
2018-06-09T16:25:49.203Z,35.20
2018-06-09T16:28:17.559Z,35.10
2018-06-09T16:30:45.918Z,35.00
2018-06-09T16:33:14.458Z,34.80
2018-06-09T16:35:43.334Z,34.70
2018-06-09T16:38:11.767Z,34.70
2018-06-09T16:40:40.305Z,34.60
2018-06-09T16:43:08.718Z,34.50
2018-06-09T16:45:37.243Z,34.40
2018-06-09T16:48:05.946Z,34.30
2018-06-09T16:50:34.428Z,34.20
2018-06-09T16:53:02.915Z,34.10
2018-06-09T16:55:31.254Z,34.00
2018-06-09T16:57:59.885Z,33.90
2018-06-09T17:00:28.282Z,33.80
2018-06-09T17:02:56.737Z,33.70
2018-06-09T17:05:25.103Z,33.50
2018-06-09T17:07:53.413Z,33.30
2018-06-09T17:10:21.924Z,33.20
2018-06-09T17:12:50.297Z,33.10
2018-06-09T17:15:18.804Z,32.90
2018-06-09T17:17:47.227Z,32.80
2018-06-09T17:20:15.990Z,32.70
2018-06-09T17:22:44.656Z,32.50
2018-06-09T17:25:13.178Z,32.50
2018-06-09T17:27:41.600Z,32.30
2018-06-09T17:30:10.053Z,32.30
2018-06-09T17:32:38.627Z,32.20
2018-06-09T17:35:07.208Z,32.10
2018-06-09T17:37:35.930Z,32.00
2018-06-09T17:40:05.124Z,31.90
2018-06-09T17:42:33.560Z,31.80
2018-06-09T17:45:02.000Z,31.80
2018-06-09T17:47:30.475Z,31.70
2018-06-09T17:49:58.803Z,31.60
2018-06-09T17:52:27.380Z,31.50
2018-06-09T17:54:55.773Z,31.50
2018-06-09T17:57:24.238Z,31.40
2018-06-09T17:59:52.575Z,31.40
2018-06-09T18:02:21.021Z,31.30
2018-06-09T18:04:49.590Z,31.30
2018-06-09T18:07:18.030Z,31.20
2018-06-09T18:09:46.851Z,31.10
2018-06-09T18:12:15.212Z,31.00
2018-06-09T18:14:43.669Z,31.00
2018-06-09T18:17:12.363Z,30.90
2018-06-09T18:19:41.019Z,30.90
2018-06-09T18:22:09.649Z,30.80
2018-06-09T18:24:38.026Z,30.70
2018-06-09T18:27:06.456Z,30.70
2018-06-09T18:29:34.949Z,30.60
2018-06-09T18:32:03.421Z,30.50
2018-06-09T18:34:31.748Z,30.50
2018-06-09T18:37:00.140Z,30.40
2018-06-09T18:39:28.456Z,30.40
2018-06-09T18:41:56.889Z,30.30
2018-06-09T18:44:25.219Z,30.20
2018-06-09T18:46:53.664Z,30.20
2018-06-09T18:49:22.066Z,30.10
2018-06-09T18:51:52.078Z,30.10
2018-06-09T18:54:20.403Z,30.00
2018-06-09T18:56:48.929Z,29.90
2018-06-09T18:59:17.562Z,29.80
2018-06-09T19:01:46.074Z,29.80
2018-06-09T19:04:14.449Z,29.70
2018-06-09T19:06:43.006Z,29.70
2018-06-09T19:09:11.758Z,29.60
2018-06-09T19:11:40.338Z,29.50
2018-06-09T19:14:08.786Z,29.50
2018-06-09T19:16:37.271Z,29.50
2018-06-09T19:19:05.768Z,29.40
2018-06-09T19:21:34.339Z,29.40
2018-06-09T19:24:02.747Z,29.30
2018-06-09T19:26:31.951Z,29.30
2018-06-09T19:29:00.410Z,29.30
2018-06-09T19:31:28.842Z,29.30
2018-06-09T19:33:57.384Z,29.20
2018-06-09T19:36:25.731Z,29.10
2018-06-09T19:38:54.379Z,29.00
2018-06-09T19:41:22.859Z,28.90
2018-06-09T19:43:51.385Z,28.80
2018-06-09T19:46:19.788Z,28.70
2018-06-09T19:48:48.225Z,28.60
2018-06-09T19:51:16.699Z,28.50
2018-06-09T19:53:45.155Z,28.40
2018-06-09T19:56:13.501Z,28.30
2018-06-09T19:58:42.089Z,28.20
2018-06-09T20:01:10.643Z,28.10
2018-06-09T20:03:39.032Z,28.10
2018-06-09T20:06:07.542Z,28.00
2018-06-09T20:08:36.186Z,28.00
2018-06-09T20:11:04.670Z,27.90
2018-06-09T20:13:33.235Z,27.80
2018-06-09T20:16:43.949Z,27.80
2018-06-09T20:19:12.490Z,27.60
2018-06-09T20:21:41.171Z,27.50
2018-06-09T20:24:09.575Z,27.50
2018-06-09T20:26:38.310Z,27.40
2018-06-09T20:29:06.795Z,27.40
2018-06-09T20:31:35.508Z,27.30
2018-06-09T20:34:04.034Z,27.20
2018-06-09T20:36:32.944Z,27.20
2018-06-09T20:39:01.372Z,27.10
2018-06-09T20:41:29.899Z,27.10
2018-06-09T20:43:58.380Z,27.00
2018-06-09T20:46:26.755Z,27.00
2018-06-09T20:48:55.246Z,27.00
2018-06-09T20:51:23.765Z,27.00
2018-06-09T20:53:52.170Z,27.00
2018-06-09T20:56:20.528Z,27.00
2018-06-09T20:58:49.388Z,27.00
2018-06-09T21:01:17.839Z,27.00
2018-06-09T21:03:46.420Z,27.00
2018-06-09T21:06:14.975Z,27.00
2018-06-09T21:08:43.470Z,27.00
2018-06-09T21:11:12.869Z,27.00
2018-06-09T21:13:41.532Z,27.00
2018-06-09T21:16:10.121Z,27.00
2018-06-09T21:18:39.796Z,27.00
2018-06-09T21:21:08.341Z,27.00
2018-06-09T21:23:37.689Z,26.90
2018-06-09T21:26:06.463Z,26.90
2018-06-09T21:28:44.056Z,26.90
2018-06-09T21:31:22.584Z,26.90
2018-06-09T21:34:04.400Z,26.90
2018-06-09T21:36:39.910Z,26.90
2018-06-09T21:39:13.540Z,26.80
2018-06-09T21:41:44.318Z,26.80
2018-06-09T21:44:14.208Z,26.70
2018-06-09T21:46:46.890Z,26.70
2018-06-09T21:49:16.686Z,26.70
2018-06-09T21:51:45.064Z,26.70
2018-06-09T21:54:13.564Z,26.70
2018-06-09T21:56:42.317Z,26.60
2018-06-09T21:59:10.820Z,26.60
2018-06-09T22:01:39.263Z,26.60
2018-06-09T22:04:07.801Z,26.50
2018-06-09T22:06:36.534Z,26.50
2018-06-09T22:09:11.023Z,26.50
2018-06-09T22:11:39.565Z,26.50
2018-06-09T22:14:08.185Z,26.40
2018-06-09T22:16:37.049Z,26.40
2018-06-09T22:19:05.557Z,26.40
2018-06-09T22:21:34.366Z,26.40
2018-06-09T22:24:03.551Z,26.30
2018-06-09T22:26:31.971Z,26.30
2018-06-09T22:29:00.641Z,26.30
2018-06-09T22:31:28.976Z,26.30
2018-06-09T22:33:57.393Z,26.30
2018-06-09T22:36:25.867Z,26.30
2018-06-09T22:38:54.299Z,26.20
2018-06-09T22:43:50.795Z,26.20
2018-06-09T22:46:19.165Z,26.20
2018-06-09T22:48:47.818Z,26.20
2018-06-09T22:51:16.338Z,26.20
2018-06-09T22:53:44.746Z,26.20
2018-06-09T22:56:13.447Z,26.20
2018-06-09T22:58:41.925Z,26.20
2018-06-09T23:01:10.298Z,26.20
2018-06-09T23:03:38.847Z,26.10
2018-06-09T23:08:35.573Z,26.10
2018-06-09T23:11:04.015Z,26.10
2018-06-09T23:13:32.740Z,26.10
2018-06-09T23:16:01.196Z,26.10
2018-06-09T23:18:29.633Z,26.10
2018-06-09T23:20:58.047Z,26.10
2018-06-09T23:23:26.461Z,26.00
2018-06-09T23:25:54.960Z,26.00
2018-06-09T23:28:23.728Z,26.00
2018-06-09T23:30:52.358Z,26.00
2018-06-09T23:33:20.680Z,26.00
2018-06-09T23:35:49.716Z,26.00
2018-06-09T23:38:18.198Z,26.00
2018-06-09T23:40:46.805Z,26.00
2018-06-09T23:43:15.271Z,25.90
2018-06-09T23:45:43.666Z,25.90
2018-06-09T23:48:11.976Z,25.90
2018-06-09T23:50:40.393Z,25.90
2018-06-09T23:53:08.874Z,25.90
2018-06-09T23:55:37.375Z,25.90
2018-06-09T23:58:05.839Z,25.90
